createdAt,value
2023-05-17T00:00:19.372Z,938.31
2023-05-17T00:01:19.962Z,938.29
2023-05-17T00:02:20.667Z,938.26
2023-05-17T00:03:20.848Z,938.27
2023-05-17T00:04:21.346Z,938.24
2023-05-17T00:05:22.133Z,938.23
2023-05-17T00:06:23.007Z,938.3
2023-05-17T00:07:23.143Z,938.32
2023-05-17T00:08:24.029Z,938.33
2023-05-17T00:09:24.691Z,938.33
2023-05-17T00:10:25.200Z,938.36
2023-05-17T00:11:25.849Z,938.38
2023-05-17T00:12:26.537Z,938.42
2023-05-17T00:13:26.865Z,938.4
2023-05-17T00:14:27.961Z,938.37
2023-05-17T00:15:28.260Z,938.39
2023-05-17T00:16:28.554Z,938.44
2023-05-17T00:17:29.655Z,938.5
2023-05-17T00:18:30.030Z,938.54
2023-05-17T00:19:30.224Z,938.51
2023-05-17T00:20:30.890Z,938.47
2023-05-17T00:21:31.145Z,938.51
2023-05-17T00:22:31.391Z,938.53
2023-05-17T00:23:31.486Z,938.54
2023-05-17T00:24:32.166Z,938.54
2023-05-17T00:25:32.856Z,938.57
2023-05-17T00:26:33.626Z,938.58
2023-05-17T00:27:34.114Z,938.63
2023-05-17T00:28:34.404Z,938.59
2023-05-17T00:29:35.189Z,938.55
2023-05-17T00:30:35.392Z,938.57
2023-05-17T00:31:36.122Z,938.59
2023-05-17T00:32:37.305Z,938.58
2023-05-17T00:33:37.546Z,938.62
2023-05-17T00:34:38.110Z,938.61
2023-05-17T00:35:38.565Z,938.63
2023-05-17T00:36:39.085Z,938.6
2023-05-17T00:37:39.335Z,938.65
2023-05-17T00:38:39.622Z,938.64
2023-05-17T00:39:40.291Z,938.69
2023-05-17T00:40:41.171Z,938.65
2023-05-17T00:41:41.668Z,938.69
2023-05-17T00:42:42.162Z,938.68
2023-05-17T00:43:42.666Z,938.71
2023-05-17T00:44:43.683Z,938.68
2023-05-17T00:45:44.604Z,938.67
2023-05-17T00:46:44.926Z,938.67
2023-05-17T00:47:45.651Z,938.64
2023-05-17T00:48:46.072Z,938.66
2023-05-17T00:49:47.053Z,938.69
2023-05-17T00:50:47.359Z,938.69
2023-05-17T00:51:48.207Z,938.68
2023-05-17T00:52:48.668Z,938.68
2023-05-17T00:53:49.416Z,938.69
2023-05-17T00:54:50.025Z,938.66
2023-05-17T00:55:50.922Z,938.65
2023-05-17T00:56:51.221Z,938.65
2023-05-17T00:57:51.911Z,938.65
2023-05-17T00:58:52.396Z,938.65
2023-05-17T00:59:53.030Z,938.66
2023-05-17T01:00:53.886Z,938.69
2023-05-17T01:01:54.104Z,938.66
2023-05-17T01:02:54.294Z,938.73
2023-05-17T01:03:54.468Z,938.74
2023-05-17T01:04:54.663Z,938.71
2023-05-17T01:05:54.751Z,938.73
2023-05-17T01:06:55.359Z,938.7
2023-05-17T01:07:56.117Z,938.7
2023-05-17T01:08:56.785Z,938.72
2023-05-17T01:09:57.067Z,938.7
2023-05-17T01:10:57.349Z,938.74
2023-05-17T01:11:58.287Z,938.74
2023-05-17T01:12:58.564Z,938.77
2023-05-17T01:13:59.038Z,938.74
2023-05-17T01:14:59.894Z,938.74
2023-05-17T01:16:00.084Z,938.77
2023-05-17T01:17:00.609Z,938.76
2023-05-17T01:18:01.616Z,938.79
2023-05-17T01:19:02.698Z,938.77
2023-05-17T01:20:03.058Z,938.76
2023-05-17T01:21:03.913Z,938.79
2023-05-17T01:22:04.422Z,938.78
2023-05-17T01:23:04.697Z,938.79
2023-05-17T01:24:05.408Z,938.77
2023-05-17T01:25:06.295Z,938.8
2023-05-17T01:26:06.746Z,938.84
2023-05-17T01:27:07.433Z,938.8
2023-05-17T01:28:08.113Z,938.79
2023-05-17T01:29:09.017Z,938.84
2023-05-17T01:30:09.710Z,938.83
2023-05-17T01:31:10.677Z,938.86
2023-05-17T01:32:11.334Z,938.87
2023-05-17T01:33:11.696Z,938.9
2023-05-17T01:34:12.350Z,938.91
2023-05-17T01:35:12.621Z,938.9
2023-05-17T01:36:13.165Z,938.93
2023-05-17T01:37:13.649Z,938.94
2023-05-17T01:38:14.332Z,938.97
2023-05-17T01:39:15.012Z,938.99
2023-05-17T01:40:15.760Z,938.97
2023-05-17T01:41:16.377Z,938.97
2023-05-17T01:42:16.971Z,939.01
2023-05-17T01:43:18.063Z,938.98
2023-05-17T01:44:18.955Z,938.98
2023-05-17T01:45:19.275Z,939.03
2023-05-17T01:46:19.739Z,939.03
2023-05-17T01:47:20.412Z,939.01
2023-05-17T01:48:20.876Z,939.02
2023-05-17T01:49:21.005Z,939.05
2023-05-17T01:50:21.467Z,939.01
2023-05-17T01:51:21.881Z,939
2023-05-17T01:52:22.751Z,939.03
2023-05-17T01:53:23.434Z,939.06
2023-05-17T01:54:23.951Z,939.05
2023-05-17T01:55:24.821Z,939.06
2023-05-17T01:56:25.430Z,939.04
2023-05-17T01:57:26.103Z,939.05
2023-05-17T01:58:27.061Z,939.06
2023-05-17T01:59:27.949Z,939.04
2023-05-17T02:00:28.977Z,939.03
2023-05-17T02:01:28.994Z,938.99
2023-05-17T02:02:29.556Z,939.03
2023-05-17T02:03:30.423Z,939.07
2023-05-17T02:04:31.349Z,939.03
2023-05-17T02:05:32.216Z,939.01
2023-05-17T02:06:32.343Z,939.1
2023-05-17T02:07:33.089Z,939.02
2023-05-17T02:08:33.983Z,939.04
2023-05-17T02:09:34.687Z,939.05
2023-05-17T02:10:35.181Z,939.08
2023-05-17T02:11:35.668Z,939.06
2023-05-17T02:12:36.257Z,939.07
2023-05-17T02:13:36.938Z,939.08
2023-05-17T02:14:37.211Z,939.03
2023-05-17T02:15:37.819Z,939.03
2023-05-17T02:16:37.824Z,939.05
2023-05-17T02:17:38.539Z,939.06
2023-05-17T02:18:38.840Z,939.09
2023-05-17T02:19:39.266Z,939.08
2023-05-17T02:20:39.770Z,939.08
2023-05-17T02:21:40.239Z,939.1
2023-05-17T02:22:40.481Z,939.1
2023-05-17T02:23:40.789Z,939.1
2023-05-17T02:24:41.458Z,939.11
2023-05-17T02:25:41.957Z,939.12
2023-05-17T02:26:42.265Z,939.11
2023-05-17T02:27:42.762Z,939.17
2023-05-17T02:28:43.276Z,939.09
2023-05-17T02:29:43.742Z,939.09
2023-05-17T02:30:44.147Z,939.13
2023-05-17T02:31:44.923Z,939.09
2023-05-17T02:32:45.832Z,939.1
2023-05-17T02:33:46.617Z,939.09
2023-05-17T02:34:46.878Z,939.08
2023-05-17T02:35:47.358Z,939.11
2023-05-17T02:36:48.399Z,939.08
2023-05-17T02:37:49.070Z,939.08
2023-05-17T02:38:49.621Z,939.1
2023-05-17T02:39:50.327Z,939.07
2023-05-17T02:40:50.673Z,939.03
2023-05-17T02:41:51.352Z,939.05
2023-05-17T02:42:52.356Z,939.04
2023-05-17T02:43:53.093Z,939.04
2023-05-17T02:44:53.794Z,939.03
2023-05-17T02:45:54.982Z,939.09
2023-05-17T02:46:55.856Z,939.07
2023-05-17T02:47:56.593Z,939.05
2023-05-17T02:48:57.239Z,939.1
2023-05-17T02:49:57.928Z,939.11
2023-05-17T02:50:58.421Z,939.1
2023-05-17T02:51:58.603Z,939.07
2023-05-17T02:52:59.290Z,939.09
2023-05-17T02:53:59.788Z,939.1
2023-05-17T02:55:00.481Z,939.08
2023-05-17T02:56:01.007Z,939.13
2023-05-17T02:57:01.691Z,939.1
2023-05-17T02:58:01.799Z,939.06
2023-05-17T02:59:02.478Z,939.1
2023-05-17T03:00:03.037Z,939.11
2023-05-17T03:01:04.095Z,939.1
2023-05-17T03:02:04.320Z,939.1
2023-05-17T03:03:04.683Z,939.13
2023-05-17T03:04:05.144Z,939.14
2023-05-17T03:05:05.556Z,939.08
2023-05-17T03:06:06.183Z,939.12
2023-05-17T03:07:07.186Z,939.18
2023-05-17T03:08:07.200Z,939.16
2023-05-17T03:09:07.469Z,939.16
2023-05-17T03:10:07.987Z,939.16
2023-05-17T03:11:08.154Z,939.17
2023-05-17T03:12:08.446Z,939.23
2023-05-17T03:13:09.025Z,939.25
2023-05-17T03:14:09.504Z,939.23
2023-05-17T03:15:09.952Z,939.16
2023-05-17T03:16:11.145Z,939.2
2023-05-17T03:17:11.328Z,939.22
2023-05-17T03:18:11.783Z,939.23
2023-05-17T03:19:12.244Z,939.25
2023-05-17T03:20:12.466Z,939.27
2023-05-17T03:21:13.172Z,939.25
2023-05-17T03:22:13.448Z,939.3
2023-05-17T03:23:13.608Z,939.27
2023-05-17T03:24:13.893Z,939.24
2023-05-17T03:25:14.778Z,939.31
2023-05-17T03:26:15.591Z,939.33
2023-05-17T03:27:16.066Z,939.29
2023-05-17T03:28:16.943Z,939.26
2023-05-17T03:29:17.809Z,939.3
2023-05-17T03:30:18.747Z,939.3
2023-05-17T03:31:18.911Z,939.27
2023-05-17T03:32:19.840Z,939.29
2023-05-17T03:33:20.962Z,939.3
2023-05-17T03:34:21.654Z,939.33
2023-05-17T03:35:22.740Z,939.36
2023-05-17T03:36:23.240Z,939.35
2023-05-17T03:37:23.609Z,939.36
2023-05-17T03:38:24.082Z,939.37
2023-05-17T03:39:24.819Z,939.36
2023-05-17T03:40:25.720Z,939.38
2023-05-17T03:41:26.399Z,939.37
2023-05-17T03:42:26.951Z,939.4
2023-05-17T03:43:27.184Z,939.36
2023-05-17T03:44:28.136Z,939.42
2023-05-17T03:45:28.910Z,939.41
2023-05-17T03:46:29.885Z,939.39
2023-05-17T03:47:30.153Z,939.44
2023-05-17T03:48:32.572Z,939.41
2023-05-17T03:49:32.101Z,939.45
2023-05-17T03:50:32.516Z,939.45
2023-05-17T03:51:33.205Z,939.45
2023-05-17T03:52:33.409Z,939.51
2023-05-17T03:53:33.911Z,939.53
2023-05-17T03:54:34.224Z,939.53
2023-05-17T03:55:35.058Z,939.56
2023-05-17T03:56:35.769Z,939.54
2023-05-17T03:57:36.093Z,939.59
2023-05-17T03:58:37.171Z,939.59
2023-05-17T03:59:37.666Z,939.59
2023-05-17T04:00:38.130Z,939.6
2023-05-17T04:01:38.981Z,939.62
2023-05-17T04:02:39.754Z,939.64
2023-05-17T04:03:40.803Z,939.62
2023-05-17T04:04:41.726Z,939.63
2023-05-17T04:05:42.630Z,939.64
2023-05-17T04:06:43.143Z,939.65
2023-05-17T04:07:43.510Z,939.65
2023-05-17T04:08:44.182Z,939.67
2023-05-17T04:09:45.102Z,939.67
2023-05-17T04:10:45.793Z,939.7
2023-05-17T04:11:46.467Z,939.67
2023-05-17T04:12:46.934Z,939.69
2023-05-17T04:13:47.678Z,939.65
2023-05-17T04:14:48.003Z,939.69
2023-05-17T04:15:48.309Z,939.7
2023-05-17T04:16:48.923Z,939.71
2023-05-17T04:17:49.943Z,939.73
2023-05-17T04:18:50.228Z,939.74
2023-05-17T04:19:50.859Z,939.74
2023-05-17T04:20:51.008Z,939.74
2023-05-17T04:21:51.568Z,939.75
2023-05-17T04:22:52.627Z,939.78
2023-05-17T04:23:53.631Z,939.76
2023-05-17T04:24:53.905Z,939.78
2023-05-17T04:25:54.840Z,939.77
2023-05-17T04:26:55.186Z,939.75
2023-05-17T04:27:55.872Z,939.78
2023-05-17T04:28:56.137Z,939.81
2023-05-17T04:29:57.084Z,939.81
2023-05-17T04:30:57.760Z,939.78
2023-05-17T04:31:58.207Z,939.83
2023-05-17T04:32:58.401Z,939.8
2023-05-17T04:33:59.418Z,939.86
2023-05-17T04:34:59.950Z,939.87
2023-05-17T04:36:00.645Z,939.87
2023-05-17T04:37:01.356Z,939.88
2023-05-17T04:38:02.403Z,939.92
2023-05-17T04:39:03.481Z,939.9
2023-05-17T04:40:04.368Z,939.89
2023-05-17T04:41:05.086Z,939.94
2023-05-17T04:42:05.613Z,939.94
2023-05-17T04:43:06.492Z,939.96
2023-05-17T04:44:06.667Z,939.97
2023-05-17T04:45:07.735Z,939.97
2023-05-17T04:46:08.355Z,939.99
2023-05-17T04:47:08.583Z,940
2023-05-17T04:48:08.779Z,939.97
2023-05-17T04:49:09.129Z,940
2023-05-17T04:50:09.812Z,940.01
2023-05-17T04:51:10.288Z,940.04
2023-05-17T04:52:10.753Z,940.03
2023-05-17T04:53:11.851Z,940.07
2023-05-17T04:54:12.801Z,940.05
2023-05-17T04:55:13.134Z,940.09
2023-05-17T04:56:14.070Z,940.08
2023-05-17T04:57:14.746Z,940.06
2023-05-17T04:58:15.610Z,940.08
2023-05-17T04:59:16.280Z,940.08
2023-05-17T05:00:17.012Z,940.13
2023-05-17T05:01:17.530Z,940.14
2023-05-17T05:02:18.642Z,940.11
2023-05-17T05:03:19.031Z,940.13
2023-05-17T05:04:19.730Z,940.14
2023-05-17T05:05:20.933Z,940.12
2023-05-17T05:06:21.264Z,940.19
2023-05-17T05:07:22.179Z,940.15
2023-05-17T05:08:22.776Z,940.2
2023-05-17T05:09:23.518Z,940.2
2023-05-17T05:10:24.189Z,940.23
2023-05-17T05:11:25.090Z,940.18
2023-05-17T05:12:25.800Z,940.18
2023-05-17T05:13:26.333Z,940.19
2023-05-17T05:14:27.291Z,940.17
2023-05-17T05:15:27.907Z,940.19
2023-05-17T05:16:28.827Z,940.2
2023-05-17T05:17:29.508Z,940.18
2023-05-17T05:18:30.083Z,940.21
2023-05-17T05:19:30.699Z,940.22
2023-05-17T05:20:31.029Z,940.2
2023-05-17T05:21:31.528Z,940.19
2023-05-17T05:22:32.014Z,940.2
2023-05-17T05:23:32.391Z,940.19
2023-05-17T05:24:33.215Z,940.23
2023-05-17T05:25:33.971Z,940.2
2023-05-17T05:26:34.062Z,940.22
2023-05-17T05:27:34.813Z,940.23
2023-05-17T05:28:35.310Z,940.26
2023-05-17T05:29:35.671Z,940.24
2023-05-17T05:30:36.569Z,940.26
2023-05-17T05:31:37.329Z,940.26
2023-05-17T05:32:37.713Z,940.29
2023-05-17T05:33:38.102Z,940.3
2023-05-17T05:34:38.178Z,940.28
2023-05-17T05:35:38.658Z,940.3
2023-05-17T05:36:39.602Z,940.28
2023-05-17T05:37:40.346Z,940.3
2023-05-17T05:38:40.592Z,940.32
2023-05-17T05:39:41.264Z,940.34
2023-05-17T05:40:41.972Z,940.29
2023-05-17T05:41:42.259Z,940.35
2023-05-17T05:42:43.009Z,940.33
2023-05-17T05:43:43.335Z,940.37
2023-05-17T05:44:43.545Z,940.31
2023-05-17T05:45:43.647Z,940.33
2023-05-17T05:46:43.749Z,940.34
2023-05-17T05:47:44.465Z,940.32
2023-05-17T05:48:45.009Z,940.34
2023-05-17T05:49:45.868Z,940.36
2023-05-17T05:50:46.349Z,940.39
2023-05-17T05:51:46.835Z,940.37
2023-05-17T05:52:47.720Z,940.36
2023-05-17T05:53:48.076Z,940.37
2023-05-17T05:54:49.037Z,940.37
2023-05-17T05:55:49.651Z,940.38
2023-05-17T05:56:50.353Z,940.39
2023-05-17T05:57:50.886Z,940.41
2023-05-17T05:58:51.258Z,940.39
2023-05-17T05:59:51.852Z,940.43
2023-05-17T06:00:52.568Z,940.41
2023-05-17T06:01:53.002Z,940.42
2023-05-17T06:02:53.541Z,940.41
2023-05-17T06:03:53.652Z,940.4
2023-05-17T06:04:54.037Z,940.43
2023-05-17T06:05:54.881Z,940.44
2023-05-17T06:06:55.283Z,940.43
2023-05-17T06:07:56.219Z,940.46
2023-05-17T06:08:58.233Z,940.47
2023-05-17T06:09:57.437Z,940.42
2023-05-17T06:10:57.959Z,940.51
2023-05-17T06:11:58.230Z,940.48
2023-05-17T06:12:59.160Z,940.48
2023-05-17T06:14:00.062Z,940.45
2023-05-17T06:15:00.600Z,940.47
2023-05-17T06:16:01.307Z,940.48
2023-05-17T06:17:02.226Z,940.5
2023-05-17T06:18:03.351Z,940.49
2023-05-17T06:19:03.952Z,940.47
2023-05-17T06:20:04.635Z,940.51
2023-05-17T06:21:05.576Z,940.5
2023-05-17T06:22:06.269Z,940.51
2023-05-17T06:23:07.144Z,940.54
2023-05-17T06:24:07.253Z,940.55
2023-05-17T06:25:07.642Z,940.57
2023-05-17T06:26:08.382Z,940.56
2023-05-17T06:27:09.094Z,940.58
2023-05-17T06:28:09.405Z,940.59
2023-05-17T06:29:10.247Z,940.55
2023-05-17T06:30:10.346Z,940.6
2023-05-17T06:31:10.624Z,940.59
2023-05-17T06:32:11.461Z,940.57
2023-05-17T06:33:12.605Z,940.64
2023-05-17T06:34:13.322Z,940.63
2023-05-17T06:35:13.987Z,940.64
2023-05-17T06:36:15.022Z,940.6
2023-05-17T06:37:15.395Z,940.63
2023-05-17T06:38:16.326Z,940.64
2023-05-17T06:39:16.734Z,940.62
2023-05-17T06:40:17.342Z,940.63
2023-05-17T06:41:18.145Z,940.66
2023-05-17T06:42:18.631Z,940.65
2023-05-17T06:43:19.007Z,940.67
2023-05-17T06:44:19.935Z,940.65
2023-05-17T06:45:20.342Z,940.7
2023-05-17T06:46:21.021Z,940.68
2023-05-17T06:47:22.110Z,940.7
2023-05-17T06:48:22.513Z,940.67
2023-05-17T06:49:22.907Z,940.7
2023-05-17T06:50:23.999Z,940.73
2023-05-17T06:51:24.096Z,940.69
2023-05-17T06:52:24.789Z,940.75
2023-05-17T06:53:25.539Z,940.72
2023-05-17T06:54:25.715Z,940.77
2023-05-17T06:55:25.926Z,940.78
2023-05-17T06:56:26.801Z,940.8
2023-05-17T06:57:27.358Z,940.77
2023-05-17T06:58:27.855Z,940.8
2023-05-17T06:59:28.770Z,940.81
2023-05-17T07:00:29.873Z,940.82
2023-05-17T07:01:30.160Z,940.85
2023-05-17T07:02:31.898Z,940.88
2023-05-17T07:03:31.592Z,940.83
2023-05-17T07:04:32.339Z,940.81
2023-05-17T07:05:33.587Z,940.9
2023-05-17T07:06:34.388Z,940.88
2023-05-17T07:07:34.506Z,940.91
2023-05-17T07:08:35.422Z,940.86
2023-05-17T07:09:35.551Z,940.86
2023-05-17T07:10:35.662Z,940.87
2023-05-17T07:11:36.608Z,940.88
2023-05-17T07:12:37.506Z,940.89
2023-05-17T07:13:38.449Z,940.9
2023-05-17T07:14:38.965Z,940.87
2023-05-17T07:15:39.590Z,940.89
2023-05-17T07:16:40.612Z,940.91
2023-05-17T07:17:41.388Z,940.89
2023-05-17T07:18:41.616Z,940.9
2023-05-17T07:19:42.303Z,940.92
2023-05-17T07:20:43.126Z,940.94
2023-05-17T07:21:43.637Z,940.94
2023-05-17T07:22:44.144Z,940.98
2023-05-17T07:23:44.857Z,940.99
2023-05-17T07:24:45.879Z,941
2023-05-17T07:25:46.870Z,940.98
2023-05-17T07:26:47.899Z,941.02
2023-05-17T07:27:48.176Z,941.01
2023-05-17T07:28:48.950Z,941.03
2023-05-17T07:29:49.053Z,941.03
2023-05-17T07:30:49.990Z,941.02
2023-05-17T07:31:51.156Z,941.04
2023-05-17T07:32:51.332Z,941.05
2023-05-17T07:33:52.478Z,941.06
2023-05-17T07:34:52.799Z,941.07
2023-05-17T07:35:53.694Z,941.1
2023-05-17T07:36:54.665Z,941.07
2023-05-17T07:37:54.779Z,941.1
2023-05-17T07:38:55.533Z,941.09
2023-05-17T07:39:56.026Z,941.08
2023-05-17T07:40:56.291Z,941.12
2023-05-17T07:41:57.199Z,941.12
2023-05-17T07:42:57.808Z,941.12
2023-05-17T07:43:58.485Z,941.14
2023-05-17T07:44:59.182Z,941.12
2023-05-17T07:45:59.894Z,941.1
2023-05-17T07:47:00.069Z,941.07
2023-05-17T07:48:00.807Z,941.14
2023-05-17T07:49:01.280Z,941.08
2023-05-17T07:50:01.302Z,941.11
2023-05-17T07:51:02.257Z,941.08
2023-05-17T07:52:02.930Z,941.1
2023-05-17T07:53:03.668Z,941.08
2023-05-17T07:54:04.666Z,941.09
2023-05-17T07:55:04.896Z,941.11
2023-05-17T07:56:05.018Z,941.13
2023-05-17T07:57:05.866Z,941.09
2023-05-17T07:58:06.765Z,941.09
2023-05-17T07:59:07.491Z,941.15
2023-05-17T08:00:08.290Z,941.16
2023-05-17T08:01:09.117Z,941.14
2023-05-17T08:02:09.590Z,941.11
2023-05-17T08:03:10.447Z,941.16
2023-05-17T08:04:11.222Z,941.13
2023-05-17T08:05:11.527Z,941.13
2023-05-17T08:06:11.771Z,941.17
2023-05-17T08:07:11.966Z,941.18
2023-05-17T08:08:12.918Z,941.2
2023-05-17T08:09:13.717Z,941.13
2023-05-17T08:10:14.764Z,941.19
2023-05-17T08:11:15.103Z,941.18
2023-05-17T08:12:15.910Z,941.16
2023-05-17T08:13:16.662Z,941.21
2023-05-17T08:14:16.971Z,941.19
2023-05-17T08:15:17.731Z,941.19
2023-05-17T08:16:18.209Z,941.23
2023-05-17T08:17:18.854Z,941.23
2023-05-17T08:18:19.062Z,941.26
2023-05-17T08:19:19.623Z,941.24
2023-05-17T08:20:20.119Z,941.26
2023-05-17T08:21:20.800Z,941.27
2023-05-17T08:22:21.526Z,941.25
2023-05-17T08:23:21.916Z,941.28
2023-05-17T08:24:22.463Z,941.29
2023-05-17T08:25:22.817Z,941.27
2023-05-17T08:26:23.332Z,941.33
2023-05-17T08:27:24.231Z,941.32
2023-05-17T08:28:24.745Z,941.38
2023-05-17T08:29:25.800Z,941.34
2023-05-17T08:30:28.728Z,941.37
2023-05-17T08:31:27.007Z,941.42
2023-05-17T08:32:27.385Z,941.43
2023-05-17T08:33:28.489Z,941.41
2023-05-17T08:34:29.054Z,941.47
2023-05-17T08:35:29.303Z,941.46
2023-05-17T08:36:29.767Z,941.48
2023-05-17T08:37:30.353Z,941.5
2023-05-17T08:38:31.295Z,941.47
2023-05-17T08:39:31.779Z,941.49
2023-05-17T08:40:32.644Z,941.51
2023-05-17T08:41:32.933Z,941.52
2023-05-17T08:42:33.160Z,941.48
2023-05-17T08:43:33.880Z,941.51
2023-05-17T08:44:34.095Z,941.5
2023-05-17T08:45:35.065Z,941.53
2023-05-17T08:46:35.991Z,941.52
2023-05-17T08:47:36.752Z,941.56
2023-05-17T08:48:37.689Z,941.58
2023-05-17T08:49:38.322Z,941.58
2023-05-17T08:50:39.314Z,941.58
2023-05-17T08:51:40.103Z,941.59
2023-05-17T08:52:41.051Z,941.58
2023-05-17T08:53:41.840Z,941.59
2023-05-17T08:54:42.631Z,941.63
2023-05-17T08:55:43.690Z,941.6
2023-05-17T08:56:43.237Z,941.63
2023-05-17T08:57:43.784Z,941.67
2023-05-17T08:58:56.067Z,941.64
2023-05-17T08:59:45.165Z,941.67
2023-05-17T09:00:45.836Z,941.69
2023-05-17T09:01:46.741Z,941.68
2023-05-17T09:02:47.595Z,941.69
2023-05-17T09:03:48.394Z,941.71
2023-05-17T09:04:48.492Z,941.74
2023-05-17T09:05:49.166Z,941.75
2023-05-17T09:06:49.945Z,941.76
2023-05-17T09:07:50.930Z,941.77
2023-05-17T09:08:51.660Z,941.8
2023-05-17T09:09:51.810Z,941.79
2023-05-17T09:10:52.801Z,941.79
2023-05-17T09:11:53.035Z,941.8
2023-05-17T09:12:53.576Z,941.77
2023-05-17T09:13:54.454Z,941.84
2023-05-17T09:14:55.105Z,941.83
2023-05-17T09:15:56.156Z,941.81
2023-05-17T09:16:57.141Z,941.77
2023-05-17T09:17:57.556Z,941.79
2023-05-17T09:18:58.730Z,941.8
2023-05-17T09:19:59.811Z,941.81
2023-05-17T09:21:00.222Z,941.8
2023-05-17T09:22:00.990Z,941.82
2023-05-17T09:23:01.695Z,941.82
2023-05-17T09:24:06.859Z,941.84
2023-05-17T09:25:02.811Z,941.85
2023-05-17T09:26:03.751Z,941.85
2023-05-17T09:27:04.531Z,941.91
2023-05-17T09:28:05.494Z,941.86
2023-05-17T09:29:06.422Z,941.86
2023-05-17T09:30:07.446Z,941.89
2023-05-17T09:31:07.760Z,941.89
2023-05-17T09:32:08.533Z,941.89
2023-05-17T09:33:09.406Z,941.92
2023-05-17T09:34:10.456Z,941.95
2023-05-17T09:35:10.934Z,941.94
2023-05-17T09:36:11.475Z,941.94
2023-05-17T09:37:12.329Z,941.96
2023-05-17T09:38:12.491Z,941.94
2023-05-17T09:39:13.561Z,941.97
2023-05-17T09:40:13.773Z,942.02
2023-05-17T09:41:13.926Z,942.03
2023-05-17T09:42:14.892Z,942.03
2023-05-17T09:43:15.015Z,942.03
2023-05-17T09:44:15.191Z,942.05
2023-05-17T09:45:15.414Z,942.04
2023-05-17T09:46:15.652Z,942.08
2023-05-17T09:47:16.129Z,942.03
2023-05-17T09:48:16.469Z,942.03
2023-05-17T09:49:17.129Z,942.08
2023-05-17T09:50:17.322Z,942.09
2023-05-17T09:51:17.859Z,942.08
2023-05-17T09:52:18.853Z,942.1
2023-05-17T09:53:19.176Z,942.1
2023-05-17T09:54:19.206Z,942.13
2023-05-17T09:55:20.112Z,942.09
2023-05-17T09:56:20.753Z,942.08
2023-05-17T09:57:21.691Z,942.05
2023-05-17T09:58:21.830Z,942.04
2023-05-17T09:59:22.818Z,942.05
2023-05-17T10:00:23.759Z,942.05
2023-05-17T10:01:24.462Z,942.09
2023-05-17T10:02:24.592Z,942.1
2023-05-17T10:03:24.879Z,942.07
2023-05-17T10:04:25.670Z,942.08
2023-05-17T10:05:26.066Z,942.06
2023-05-17T10:06:38.920Z,942.03
2023-05-17T10:08:35.574Z,942.07
2023-05-17T10:09:36.332Z,942.06
2023-05-17T10:10:36.463Z,942.03
2023-05-17T10:11:36.669Z,942.01
2023-05-17T10:12:36.833Z,942.04
2023-05-17T10:13:37.858Z,942.04
2023-05-17T10:14:38.835Z,942.05
2023-05-17T10:15:39.821Z,942.08
2023-05-17T10:16:40.749Z,942.03
2023-05-17T10:17:42.362Z,942.04
2023-05-17T10:18:41.938Z,942.03
2023-05-17T10:19:42.735Z,942.07
2023-05-17T10:20:43.669Z,942.04
2023-05-17T10:21:44.667Z,942.04
2023-05-17T10:22:45.398Z,942.06
2023-05-17T10:23:46.286Z,942.08
2023-05-17T10:24:46.831Z,942.1
2023-05-17T10:25:46.946Z,942.13
2023-05-17T10:26:47.741Z,942.09
2023-05-17T10:27:48.590Z,942.13
2023-05-17T10:28:48.695Z,942.14
2023-05-17T10:29:50.670Z,942.07
2023-05-17T10:30:49.995Z,942.1
2023-05-17T10:31:50.318Z,942.05
2023-05-17T10:32:51.492Z,942.09
2023-05-17T10:33:52.018Z,942.1
2023-05-17T10:35:01.960Z,942.03
2023-05-17T10:35:52.931Z,942.08
2023-05-17T10:36:53.772Z,942.03
2023-05-17T10:37:54.844Z,942.07
2023-05-17T10:38:55.557Z,942.03
2023-05-17T10:39:56.062Z,941.99
2023-05-17T10:40:56.954Z,941.99
2023-05-17T10:42:13.195Z,942
2023-05-17T10:42:58.462Z,941.99
2023-05-17T10:43:58.836Z,942.02
2023-05-17T10:44:58.939Z,942.03
2023-05-17T10:45:59.440Z,942.05
2023-05-17T10:47:00.370Z,942.04
2023-05-17T10:48:01.365Z,942.06
2023-05-17T10:49:01.743Z,942.09
2023-05-17T10:50:01.782Z,942.04
2023-05-17T10:51:02.707Z,942.03
2023-05-17T10:52:02.875Z,942.08
2023-05-17T10:53:03.414Z,942.06
2023-05-17T10:54:04.187Z,942.03
2023-05-17T10:55:04.905Z,942
2023-05-17T10:56:05.012Z,942.01
2023-05-17T10:57:06.444Z,941.94
2023-05-17T10:58:05.490Z,941.98
2023-05-17T10:59:06.253Z,941.97
2023-05-17T11:00:07.218Z,942
2023-05-17T11:01:07.355Z,942
2023-05-17T11:02:08.279Z,942.03
2023-05-17T11:03:08.780Z,942
2023-05-17T11:04:09.828Z,942
2023-05-17T11:05:10.295Z,941.99
2023-05-17T11:06:12.843Z,941.98
2023-05-17T11:07:11.251Z,941.99
2023-05-17T11:08:11.878Z,941.98
2023-05-17T11:09:12.563Z,941.97
2023-05-17T11:10:12.983Z,941.94
2023-05-17T11:11:13.374Z,941.96
2023-05-17T11:12:14.176Z,942
2023-05-17T11:13:14.976Z,941.96
2023-05-17T11:14:15.491Z,941.95
2023-05-17T11:15:15.764Z,941.98
2023-05-17T11:16:17.826Z,941.97
2023-05-17T11:17:16.916Z,941.97
2023-05-17T11:18:29.373Z,941.93
2023-05-17T11:19:17.416Z,941.9
2023-05-17T11:20:17.662Z,941.9
2023-05-17T11:21:18.022Z,941.86
2023-05-17T11:22:18.514Z,941.88
2023-05-17T11:23:19.498Z,941.86
2023-05-17T11:24:22.157Z,941.86
2023-05-17T11:25:21.148Z,941.87
2023-05-17T11:26:22.058Z,941.87
2023-05-17T11:27:22.818Z,941.84
2023-05-17T11:28:22.972Z,941.82
2023-05-17T11:29:23.720Z,941.83
2023-05-17T11:30:24.499Z,941.86
2023-05-17T11:31:25.106Z,941.84
2023-05-17T11:32:25.975Z,941.85
2023-05-17T11:33:33.397Z,941.83
2023-05-17T11:34:27.139Z,941.83
2023-05-17T11:35:28.170Z,941.85
2023-05-17T11:36:28.749Z,941.8
2023-05-17T11:37:29.680Z,941.78
2023-05-17T11:38:30.629Z,941.83
2023-05-17T11:39:31.508Z,941.83
2023-05-17T11:40:32.599Z,941.81
2023-05-17T11:41:33.113Z,941.83
2023-05-17T11:42:33.246Z,941.82
2023-05-17T11:43:33.778Z,941.86
2023-05-17T11:44:34.751Z,941.87
2023-05-17T11:45:35.739Z,941.85
2023-05-17T11:46:36.252Z,941.85
2023-05-17T11:47:36.562Z,941.82
2023-05-17T11:48:37.029Z,941.82
2023-05-17T11:49:37.848Z,941.85
2023-05-17T11:50:38.056Z,941.87
2023-05-17T11:51:38.707Z,941.89
2023-05-17T11:52:39.606Z,941.91
2023-05-17T11:53:39.868Z,941.94
2023-05-17T11:54:40.591Z,941.92
2023-05-17T11:55:40.614Z,941.92
2023-05-17T11:56:43.287Z,941.91
2023-05-17T11:57:41.590Z,941.93
2023-05-17T11:58:42.305Z,941.95
2023-05-17T11:59:43.210Z,941.89
2023-05-17T12:00:44.085Z,941.92
2023-05-17T12:01:44.781Z,941.85
2023-05-17T12:02:45.299Z,941.9
2023-05-17T12:03:46.260Z,941.9
2023-05-17T12:04:47.061Z,941.87
2023-05-17T12:05:48.012Z,941.9
2023-05-17T12:06:49.028Z,941.89
2023-05-17T12:07:49.936Z,941.86
2023-05-17T12:08:50.671Z,941.87
2023-05-17T12:09:51.640Z,941.91
2023-05-17T12:10:52.371Z,941.9
2023-05-17T12:11:52.837Z,941.92
2023-05-17T12:12:53.009Z,941.91
2023-05-17T12:13:53.152Z,941.93
2023-05-17T12:14:53.325Z,941.91
2023-05-17T12:15:54.129Z,941.92
2023-05-17T12:16:54.836Z,941.92
2023-05-17T12:17:55.793Z,941.91
2023-05-17T12:18:56.307Z,941.94
2023-05-17T12:19:57.002Z,941.9
2023-05-17T12:20:57.268Z,941.86
2023-05-17T12:21:58.029Z,941.87
2023-05-17T12:22:58.761Z,941.87
2023-05-17T12:23:59.690Z,941.85
2023-05-17T12:25:00.108Z,941.86
2023-05-17T12:26:01.045Z,941.86
2023-05-17T12:27:01.865Z,941.86
2023-05-17T12:28:02.891Z,941.85
2023-05-17T12:29:03.433Z,941.79
2023-05-17T12:30:03.769Z,941.81
2023-05-17T12:31:04.388Z,941.8
2023-05-17T12:32:05.296Z,941.81
2023-05-17T12:33:05.613Z,941.8
2023-05-17T12:34:06.089Z,941.8
2023-05-17T12:35:06.296Z,941.8
2023-05-17T12:36:06.622Z,941.76
2023-05-17T12:37:07.654Z,941.79
2023-05-17T12:38:07.772Z,941.79
2023-05-17T12:39:08.676Z,941.82
2023-05-17T12:40:08.782Z,941.77
2023-05-17T12:41:09.463Z,941.77